Time;durP1;ratioP1;P1;durP2;ratioP2;P2;SDS_P1;SDS_P2;PMS_P1;PMS_P2;Temp;Humidity;BMP_temperature;BMP_pressure;BME280_temperature;BME280_humidity;BME280_pressure;Samples;Min_cycle;Max_cycle;Signal;HPM_P1;HPM_P2
2022/07/17 00:01:13;;;;;;;1.97;1.30;;;17.30;99.90;;;;;;5095966;28;20450;-66
2022/07/17 00:03:39;;;;;;;6.73;1.73;;;17.30;99.90;;;;;;5095842;28;20860;-66
2022/07/17 00:06:06;;;;;;;6.83;1.53;;;17.20;99.90;;;;;;5096013;28;20538;-66
2022/07/17 00:08:32;;;;;;;2.80;1.27;;;17.20;99.90;;;;;;5095953;28;20446;-66
2022/07/17 00:11:01;;;;;;;4.00;1.40;;;17.10;99.90;;;;;;5095857;28;20446;-66
2022/07/17 00:13:28;;;;;;;4.70;1.37;;;17.10;99.90;;;;;;5095780;28;20457;-66
2022/07/17 00:15:54;;;;;;;3.80;1.30;;;17.00;99.90;;;;;;5095604;28;20474;-66
2022/07/17 00:18:21;;;;;;;5.60;1.70;;;16.90;99.90;;;;;;5095822;28;20484;-66
2022/07/17 00:20:47;;;;;;;4.40;1.37;;;16.90;99.90;;;;;;5095754;28;20882;-66
2022/07/17 00:23:14;;;;;;;5.73;1.43;;;16.90;99.90;;;;;;5095760;28;20442;-66
2022/07/17 00:25:40;;;;;;;2.23;1.30;;;16.90;99.90;;;;;;5095591;28;20442;-66
2022/07/17 00:28:08;;;;;;;1.97;1.23;;;16.90;99.90;;;;;;5095451;28;20457;-66
2022/07/17 00:30:35;;;;;;;4.60;1.20;;;16.90;99.90;;;;;;5095345;28;20540;-66
2022/07/17 00:33:01;;;;;;;3.13;1.30;;;16.90;99.90;;;;;;5095235;28;20457;-66
2022/07/17 00:35:28;;;;;;;2.20;1.13;;;16.90;99.90;;;;;;5095421;28;20443;-66
2022/07/17 00:37:54;;;;;;;8.00;1.50;;;16.80;99.90;;;;;;5095303;28;20959;-66
2022/07/17 00:40:23;;;;;;;4.20;1.20;;;16.80;99.90;;;;;;5095231;28;20473;-66
2022/07/17 00:42:51;;;;;;;6.50;1.37;;;16.80;99.90;;;;;;5095144;28;20453;-66
2022/07/17 00:45:19;;;;;;;2.50;1.43;;;16.80;99.90;;;;;;5095043;28;20813;-66
2022/07/17 00:47:53;;;;;;;4.03;1.33;;;16.80;99.90;;;;;;5095267;28;20482;-66
2022/07/17 00:50:21;;;;;;;3.83;1.20;;;16.70;99.90;;;;;;5094994;28;20937;-66
2022/07/17 00:52:48;;;;;;;5.67;1.30;;;16.70;99.90;;;;;;5095487;28;20921;-66
2022/07/17 00:55:15;;;;;;;2.57;1.00;;;16.70;99.90;;;;;;5095029;28;20457;-66
2022/07/17 00:57:45;;;;;;;4.53;1.50;;;16.60;99.90;;;;;;5094617;28;20510;-66
2022/07/17 01:00:13;;;;;;;6.10;1.40;;;16.60;99.90;;;;;;5095092;28;20455;-66
2022/07/17 01:02:41;;;;;;;5.30;1.10;;;16.60;99.90;;;;;;5094971;28;20458;-66
2022/07/17 01:05:07;;;;;;;3.87;1.47;;;16.60;99.90;;;;;;5094824;28;20446;-66
2022/07/17 01:07:34;;;;;;;2.93;1.43;;;16.50;99.90;;;;;;5094787;28;20453;-66
2022/07/17 01:10:00;;;;;;;2.53;1.10;;;16.40;99.90;;;;;;5094605;28;20492;-66
2022/07/17 01:12:28;;;;;;;1.97;1.20;;;16.40;99.90;;;;;;5095024;28;20897;-66
2022/07/17 01:14:56;;;;;;;5.73;1.50;;;16.40;99.90;;;;;;5094674;28;20447;-66
2022/07/17 01:17:22;;;;;;;3.00;1.67;;;16.50;99.90;;;;;;5094648;28;20453;-66
2022/07/17 01:19:50;;;;;;;3.77;1.40;;;16.50;99.90;;;;;;5094449;28;20841;-66
2022/07/17 01:22:18;;;;;;;3.50;1.20;;;16.50;99.90;;;;;;5094888;28;20455;-66
2022/07/17 01:24:45;;;;;;;5.43;1.70;;;16.50;99.90;;;;;;5094363;28;20446;-66
2022/07/17 01:27:11;;;;;;;2.60;1.50;;;16.50;99.90;;;;;;5094463;28;20453;-66
2022/07/17 01:29:39;;;;;;;2.43;1.10;;;16.50;99.90;;;;;;5094436;28;20554;-66
2022/07/17 01:32:06;;;;;;;4.30;1.70;;;16.50;99.90;;;;;;5094441;28;20518;-66
2022/07/17 01:34:33;;;;;;;4.60;1.67;;;16.50;99.90;;;;;;5094322;28;20450;-66
2022/07/17 01:36:59;;;;;;;4.10;1.50;;;16.50;99.90;;;;;;5094281;28;20446;-66
2022/07/17 01:42:08;;;;;;;4.53;1.30;;;16.50;99.90;;;;;;5093880;28;20441;-66
2022/07/17 01:44:34;;;;;;;5.23;1.80;;;16.40;99.90;;;;;;5094142;28;20449;-66
2022/07/17 01:47:01;;;;;;;5.10;1.47;;;16.40;99.90;;;;;;5094240;28;20533;-66
2022/07/17 01:49:27;;;;;;;3.93;1.20;;;16.50;99.90;;;;;;5093882;28;20453;-66
2022/07/17 01:51:54;;;;;;;3.43;1.53;;;16.50;99.90;;;;;;5093878;28;20533;-66
2022/07/17 01:54:20;;;;;;;2.80;1.13;;;16.50;99.90;;;;;;5093592;28;20809;-66
2022/07/17 01:56:48;;;;;;;6.10;1.40;;;16.50;99.90;;;;;;5093812;28;20438;-66
2022/07/17 01:59:14;;;;;;;3.30;1.27;;;16.50;99.90;;;;;;5093938;28;20544;-66
2022/07/17 02:01:41;;;;;;;4.00;1.50;;;16.40;99.90;;;;;;5093752;28;20485;-66
2022/07/17 02:04:07;;;;;;;5.57;1.30;;;16.30;99.90;;;;;;5093730;28;20873;-66
2022/07/17 02:06:34;;;;;;;3.10;1.67;;;16.20;99.90;;;;;;5093608;28;20451;-66
2022/07/17 02:09:00;;;;;;;3.60;1.30;;;16.10;99.90;;;;;;5093757;28;20533;-66
2022/07/17 02:11:27;;;;;;;2.00;1.80;;;16.10;99.90;;;;;;5093833;28;20823;-66
2022/07/17 02:13:55;;;;;;;3.57;1.60;;;16.00;99.90;;;;;;5093699;28;20446;-66
2022/07/17 02:16:21;;;;;;;3.30;1.20;;;16.00;99.90;;;;;;5093547;28;20537;-66
2022/07/17 02:18:47;;;;;;;3.57;1.80;;;15.90;99.90;;;;;;5093230;28;20445;-66
2022/07/17 02:21:14;;;;;;;2.80;1.50;;;15.80;99.90;;;;;;5093355;28;20909;-66
2022/07/17 02:23:40;;;;;;;5.07;1.57;;;15.80;99.90;;;;;;5093484;28;20451;-66
2022/07/17 02:26:08;;;;;;;4.80;1.67;;;15.70;99.90;;;;;;5093400;28;20829;-66
2022/07/17 02:28:35;;;;;;;3.57;1.90;;;15.70;99.90;;;;;;5093346;28;20453;-66
2022/07/17 02:31:02;;;;;;;2.70;1.83;;;15.60;99.90;;;;;;5093229;28;20424;-66
2022/07/17 02:33:29;;;;;;;2.40;1.30;;;15.60;99.90;;;;;;5093203;28;20449;-66
2022/07/17 02:35:55;;;;;;;4.43;1.70;;;15.50;99.90;;;;;;5093114;28;20423;-66
2022/07/17 02:38:22;;;;;;;2.80;1.50;;;15.50;99.90;;;;;;5093238;28;20469;-66
2022/07/17 02:40:49;;;;;;;3.60;1.33;;;15.50;99.90;;;;;;5093208;28;20446;-66
2022/07/17 02:43:15;;;;;;;3.77;1.30;;;15.40;99.90;;;;;;5093028;28;20926;-66
2022/07/17 02:45:42;;;;;;;3.33;1.50;;;15.40;99.90;;;;;;5093118;28;20810;-66
2022/07/17 02:48:09;;;;;;;4.43;1.50;;;15.40;99.90;;;;;;5093011;28;20450;-66
2022/07/17 02:50:36;;;;;;;6.10;1.80;;;15.30;99.90;;;;;;5093204;28;20442;-66
2022/07/17 02:53:02;;;;;;;2.57;1.40;;;15.30;99.90;;;;;;5093190;28;20442;-66
2022/07/17 02:55:29;;;;;;;2.97;1.30;;;15.30;99.90;;;;;;5092993;28;20516;-66
2022/07/17 02:57:56;;;;;;;2.70;1.30;;;15.20;99.90;;;;;;5092802;28;20475;-66
2022/07/17 03:00:22;;;;;;;3.37;1.57;;;15.20;99.90;;;;;;5092755;28;20488;-66
2022/07/17 03:02:49;;;;;;;2.07;1.00;;;15.10;99.90;;;;;;5092746;28;20452;-66
2022/07/17 03:05:17;;;;;;;5.17;1.33;;;15.00;99.90;;;;;;5093047;28;20450;-66
2022/07/17 03:07:44;;;;;;;3.77;1.47;;;15.00;99.90;;;;;;5096429;28;21005;-66
2022/07/17 03:10:11;;;;;;;7.30;1.40;;;15.00;99.90;;;;;;5097034;28;20454;-66
2022/07/17 03:12:38;;;;;;;6.53;1.77;;;15.00;99.90;;;;;;5096937;28;20489;-66
2022/07/17 03:15:05;;;;;;;3.27;1.30;;;15.00;99.90;;;;;;5096864;28;20810;-66
2022/07/17 03:17:33;;;;;;;5.90;2.27;;;15.00;99.90;;;;;;5096981;28;20529;-66
2022/07/17 03:19:59;;;;;;;2.90;1.30;;;15.00;99.90;;;;;;5096899;28;20517;-66
2022/07/17 03:22:27;;;;;;;4.40;1.70;;;15.10;99.90;;;;;;5097157;28;20801;-66
2022/07/17 03:24:54;;;;;;;2.90;1.20;;;15.00;99.90;;;;;;5096724;28;20457;-66
2022/07/17 03:27:20;;;;;;;3.53;1.37;;;15.00;99.90;;;;;;5096677;28;20933;-66
2022/07/17 03:29:47;;;;;;;7.50;1.70;;;15.00;99.90;;;;;;5096568;28;20446;-66
2022/07/17 03:32:14;;;;;;;4.00;1.40;;;14.90;99.90;;;;;;5096504;28;20968;-66
2022/07/17 03:34:40;;;;;;;1.43;1.33;;;14.90;99.90;;;;;;5096704;28;20454;-66
2022/07/17 03:37:07;;;;;;;6.10;1.53;;;14.90;99.90;;;;;;5096600;28;20446;-66
2022/07/17 03:39:35;;;;;;;4.90;1.63;;;14.90;99.90;;;;;;5096445;28;20563;-66
2022/07/17 03:42:01;;;;;;;6.70;1.97;;;14.90;99.90;;;;;;5096340;28;20454;-66
2022/07/17 03:44:28;;;;;;;3.93;1.73;;;14.90;99.90;;;;;;5096242;28;20899;-66
2022/07/17 03:46:54;;;;;;;4.10;1.70;;;14.90;99.90;;;;;;5096542;28;20813;-66
2022/07/17 03:49:21;;;;;;;4.40;1.60;;;14.90;99.90;;;;;;5096368;28;20511;-66
2022/07/17 03:51:48;;;;;;;5.60;1.50;;;14.90;99.90;;;;;;5096305;28;20446;-66
2022/07/17 03:54:14;;;;;;;5.43;1.50;;;15.00;99.90;;;;;;5096222;28;20541;-66
2022/07/17 03:56:42;;;;;;;9.33;2.03;;;15.00;99.90;;;;;;5095910;28;20447;-66
2022/07/17 03:59:09;;;;;;;2.50;1.43;;;15.00;99.90;;;;;;5095965;28;20473;-66
2022/07/17 04:01:35;;;;;;;3.47;1.40;;;15.00;99.90;;;;;;5096174;28;20888;-66
2022/07/17 04:04:02;;;;;;;3.10;1.40;;;15.00;99.90;;;;;;5096198;28;20446;-66
2022/07/17 04:06:28;;;;;;;3.77;1.60;;;15.00;99.90;;;;;;5096056;28;20941;-66
2022/07/17 04:08:55;;;;;;;9.50;1.70;;;15.00;99.90;;;;;;5095927;28;20446;-66
2022/07/17 04:11:21;;;;;;;4.70;1.60;;;15.00;99.90;;;;;;5095771;28;20453;-66
2022/07/17 04:13:49;;;;;;;4.50;1.63;;;15.10;99.90;;;;;;5095955;28;20542;-66
2022/07/17 04:16:16;;;;;;;2.60;1.30;;;15.10;99.90;;;;;;5095704;28;20458;-66
2022/07/17 04:18:42;;;;;;;1.47;1.30;;;15.10;99.90;;;;;;5095326;28;20446;-66
2022/07/17 04:21:10;;;;;;;5.10;1.50;;;15.10;99.90;;;;;;5095640;28;20565;-66
2022/07/17 04:23:38;;;;;;;3.63;1.70;;;15.20;99.90;;;;;;5095630;28;20553;-66
2022/07/17 04:26:06;;;;;;;3.20;1.40;;;15.20;99.90;;;;;;5095443;28;20546;-66
2022/07/17 04:28:33;;;;;;;3.30;1.37;;;15.20;99.90;;;;;;5095667;28;20454;-66
2022/07/17 04:31:00;;;;;;;4.60;1.40;;;15.30;99.90;;;;;;5095584;28;20805;-66
2022/07/17 04:33:27;;;;;;;2.20;1.23;;;15.30;99.90;;;;;;5095603;28;20512;-66
2022/07/17 04:35:53;;;;;;;4.40;1.47;;;15.40;99.90;;;;;;5095390;28;20531;-66
2022/07/17 04:38:20;;;;;;;4.30;1.70;;;15.50;99.90;;;;;;5095333;28;20442;-66
2022/07/17 04:40:47;;;;;;;2.93;1.70;;;15.50;99.90;;;;;;5095104;28;20841;-66
2022/07/17 04:43:13;;;;;;;4.57;1.70;;;15.50;99.90;;;;;;5095130;28;20945;-66
2022/07/17 04:45:40;;;;;;;4.70;1.90;;;15.50;99.90;;;;;;5095250;28;20446;-66
2022/07/17 04:48:08;;;;;;;2.90;1.30;;;15.50;99.90;;;;;;5095182;28;20509;-66
2022/07/17 04:50:34;;;;;;;3.87;1.80;;;15.50;99.90;;;;;;5095163;28;20450;-66
2022/07/17 04:53:01;;;;;;;2.70;1.70;;;15.60;99.90;;;;;;5094966;28;20422;-66
2022/07/17 04:55:27;;;;;;;3.70;2.10;;;15.60;99.90;;;;;;5095170;28;20451;-66
2022/07/17 04:57:54;;;;;;;4.87;1.80;;;15.70;99.90;;;;;;5094905;28;20809;-66
2022/07/17 05:00:21;;;;;;;3.37;1.50;;;15.80;99.90;;;;;;5094950;28;20453;-66
2022/07/17 05:02:48;;;;;;;8.27;1.60;;;15.80;99.90;;;;;;5094901;28;20533;-66
2022/07/17 05:05:16;;;;;;;1.93;1.20;;;15.90;99.90;;;;;;5094794;28;20446;-66
2022/07/17 05:07:42;;;;;;;3.17;1.73;;;15.90;99.90;;;;;;5094590;28;20447;-66
2022/07/17 05:10:09;;;;;;;3.60;1.37;;;16.00;99.90;;;;;;5094615;28;20964;-66
2022/07/17 05:12:36;;;;;;;8.07;1.80;;;16.10;99.90;;;;;;5094556;28;20451;-66
2022/07/17 05:15:03;;;;;;;3.20;1.30;;;16.20;99.90;;;;;;5094779;28;20446;-66
2022/07/17 05:17:29;;;;;;;3.27;1.13;;;16.30;99.90;;;;;;5094437;28;20450;-66
2022/07/17 05:19:56;;;;;;;4.80;1.73;;;16.40;99.90;;;;;;5094302;28;20470;-66
2022/07/17 05:22:24;;;;;;;3.10;1.57;;;16.40;99.90;;;;;;5094443;28;20450;-66
2022/07/17 05:24:50;;;;;;;3.53;1.33;;;16.50;99.90;;;;;;5094554;28;20480;-66
2022/07/17 05:27:16;;;;;;;2.60;1.40;;;16.60;99.90;;;;;;5094440;28;20447;-66
2022/07/17 05:29:43;;;;;;;1.93;1.10;;;16.70;99.90;;;;;;5093520;28;20457;-66
2022/07/17 05:32:10;;;;;;;2.93;1.30;;;16.80;99.90;;;;;;5094182;28;21013;-66
2022/07/17 05:34:36;;;;;;;6.03;1.20;;;16.80;99.90;;;;;;5094149;28;20941;-66
2022/07/17 05:37:03;;;;;;;2.10;1.30;;;17.00;99.90;;;;;;5094066;28;20791;-66
2022/07/17 05:39:31;;;;;;;3.63;1.43;;;17.10;99.90;;;;;;5094173;28;20478;-66
2022/07/17 05:41:57;;;;;;;1.73;1.30;;;17.20;99.90;;;;;;5094168;28;20535;-66
2022/07/17 05:44:24;;;;;;;3.50;1.40;;;17.30;99.90;;;;;;5094142;28;20438;-66
2022/07/17 05:46:50;;;;;;;4.93;1.60;;;17.40;99.90;;;;;;5093979;28;20438;-66
2022/07/17 05:49:17;;;;;;;4.37;1.67;;;17.50;99.90;;;;;;5093865;28;20447;-66
2022/07/17 05:51:43;;;;;;;2.87;1.10;;;17.50;99.90;;;;;;5093844;28;20450;-66
2022/07/17 05:54:10;;;;;;;3.60;1.50;;;17.60;99.90;;;;;;5093984;28;20535;-66
2022/07/17 05:56:37;;;;;;;4.37;1.60;;;17.70;99.90;;;;;;5093738;28;20442;-66
2022/07/17 05:59:04;;;;;;;3.47;1.53;;;17.70;99.90;;;;;;5093796;28;20464;-66
2022/07/17 06:01:31;;;;;;;2.80;1.40;;;17.80;99.90;;;;;;5093538;28;20482;-66
2022/07/17 06:03:57;;;;;;;4.73;1.40;;;17.70;99.90;;;;;;5093573;28;20529;-66
2022/07/17 06:06:24;;;;;;;4.30;1.20;;;17.60;99.90;;;;;;5093796;28;20449;-66
2022/07/17 06:08:50;;;;;;;3.33;1.20;;;17.60;99.90;;;;;;5093693;28;20453;-66
2022/07/17 06:11:17;;;;;;;3.90;1.20;;;17.80;99.90;;;;;;5093621;28;20457;-66
2022/07/17 06:13:45;;;;;;;2.77;1.40;;;18.00;99.90;;;;;;5093449;28;20805;-66
2022/07/17 06:16:11;;;;;;;13.30;2.00;;;18.30;99.90;;;;;;5093417;28;20892;-66
2022/07/17 06:18:38;;;;;;;2.57;1.27;;;18.30;99.90;;;;;;5093256;28;20882;-66
2022/07/17 06:21:04;;;;;;;2.03;1.20;;;18.20;99.90;;;;;;5093447;28;20478;-66
2022/07/17 06:23:31;;;;;;;4.57;1.47;;;17.90;99.90;;;;;;5093455;28;20466;-66
2022/07/17 06:25:57;;;;;;;3.70;1.33;;;17.70;99.90;;;;;;5093443;28;20479;-66
2022/07/17 06:28:24;;;;;;;2.57;1.30;;;17.50;99.90;;;;;;5093255;28;20540;-66
2022/07/17 06:30:51;;;;;;;3.73;1.57;;;17.40;99.90;;;;;;5093172;28;20447;-66
2022/07/17 06:33:18;;;;;;;2.10;1.30;;;17.40;99.90;;;;;;5093111;28;20446;-66
2022/07/17 06:35:44;;;;;;;3.07;1.67;;;17.60;99.90;;;;;;5093260;28;20453;-65
2022/07/17 06:38:11;;;;;;;5.23;1.40;;;17.70;99.90;;;;;;5093137;28;20541;-66
2022/07/17 06:40:37;;;;;;;4.30;1.50;;;17.90;99.90;;;;;;5092942;28;20478;-66
2022/07/17 06:43:06;;;;;;;2.30;1.57;;;18.00;99.90;;;;;;5093088;28;20802;-66
2022/07/17 06:45:33;;;;;;;4.37;1.40;;;18.20;99.90;;;;;;5092987;28;20450;-66
2022/07/17 06:48:01;;;;;;;3.80;1.30;;;18.00;99.90;;;;;;5093266;28;20446;-66
2022/07/17 06:50:28;;;;;;;1.80;0.97;;;18.00;99.90;;;;;;5093170;28;20438;-66
2022/07/17 06:52:54;;;;;;;3.23;1.13;;;18.00;99.90;;;;;;5092933;28;20930;-65
2022/07/17 06:55:21;;;;;;;7.77;1.60;;;18.10;99.90;;;;;;5092975;28;20446;-66
2022/07/17 06:57:47;;;;;;;3.53;1.63;;;18.30;99.90;;;;;;5092721;28;20470;-66
2022/07/17 07:00:15;;;;;;;3.00;1.30;;;18.50;99.90;;;;;;5092699;28;20474;-66
2022/07/17 07:02:41;;;;;;;2.93;1.50;;;18.50;99.90;;;;;;5093082;28;20446;-66
2022/07/17 07:05:09;;;;;;;3.27;1.53;;;18.50;99.90;;;;;;5093089;28;20446;-66
2022/07/17 07:07:36;;;;;;;8.63;1.60;;;18.50;99.90;;;;;;5092902;28;20443;-66
2022/07/17 07:10:03;;;;;;;2.33;1.23;;;18.60;99.90;;;;;;5092883;28;21021;-66
2022/07/17 07:12:30;;;;;;;4.60;1.47;;;18.60;99.90;;;;;;5092809;28;20446;-66
2022/07/17 07:14:57;;;;;;;2.20;1.23;;;18.30;99.90;;;;;;5092569;28;20454;-66
2022/07/17 07:17:23;;;;;;;2.70;1.40;;;18.30;99.90;;;;;;5092948;28;20480;-66
2022/07/17 07:19:50;;;;;;;3.97;1.50;;;18.30;99.90;;;;;;5092678;28;20446;-66
2022/07/17 07:22:17;;;;;;;1.80;1.07;;;18.40;99.90;;;;;;5092841;28;20541;-66
2022/07/17 07:24:44;;;;;;;2.40;1.37;;;18.60;99.90;;;;;;5092796;28;20482;-66
2022/07/17 07:27:10;;;;;;;3.03;1.10;;;18.70;99.90;;;;;;5092651;28;20451;-66
2022/07/17 07:29:37;;;;;;;4.90;1.30;;;18.80;99.90;;;;;;5092445;28;20458;-66
2022/07/17 07:32:04;;;;;;;5.17;1.67;;;19.00;99.90;;;;;;5092653;28;20442;-65
2022/07/17 07:34:30;;;;;;;3.00;1.30;;;18.90;99.90;;;;;;5092647;28;20443;-66
2022/07/17 07:36:57;;;;;;;5.93;1.47;;;19.00;99.90;;;;;;5092643;28;20534;-65
2022/07/17 07:39:25;;;;;;;3.20;1.60;;;19.10;99.90;;;;;;5092596;28;20448;-65
2022/07/17 07:41:51;;;;;;;1.87;1.20;;;19.10;99.90;;;;;;5092878;28;20478;-66
2022/07/17 07:44:18;;;;;;;3.10;1.33;;;19.10;99.90;;;;;;5092666;28;20812;-65
2022/07/17 07:46:45;;;;;;;3.60;1.10;;;19.20;99.90;;;;;;5092561;28;20446;-65
2022/07/17 07:49:11;;;;;;;2.13;1.17;;;19.30;99.90;;;;;;5092457;28;20454;-66
2022/07/17 07:51:38;;;;;;;3.10;1.40;;;19.40;99.90;;;;;;5092555;28;20511;-66
2022/07/17 07:54:04;;;;;;;3.23;1.47;;;19.50;99.90;;;;;;5096115;28;20446;-66
2022/07/17 07:56:33;;;;;;;3.63;1.43;;;19.40;99.90;;;;;;5095786;28;20545;-66
2022/07/17 07:58:59;;;;;;;3.67;1.60;;;19.50;99.90;;;;;;5096098;28;20507;-66
2022/07/17 08:01:26;;;;;;;1.77;1.47;;;19.70;99.90;;;;;;5096090;28;20482;-65
2022/07/17 08:03:52;;;;;;;4.07;1.33;;;19.80;99.90;;;;;;5096063;28;20533;-65
2022/07/17 08:06:19;;;;;;;4.03;1.40;;;19.80;99.90;;;;;;5095950;28;20446;-65
2022/07/17 08:08:45;;;;;;;4.90;1.60;;;19.70;99.90;;;;;;5095926;28;20537;-66
2022/07/17 08:11:12;;;;;;;2.60;1.40;;;19.60;99.90;;;;;;5095796;28;20457;-66
2022/07/17 08:13:40;;;;;;;3.57;1.37;;;19.50;99.90;;;;;;5095985;28;20472;-66
2022/07/17 08:16:07;;;;;;;5.80;1.60;;;19.50;99.90;;;;;;5096119;28;20446;-66
2022/07/17 08:18:34;;;;;;;3.40;1.37;;;19.50;99.90;;;;;;5095702;28;20455;-66
2022/07/17 08:21:01;;;;;;;5.83;1.80;;;19.30;99.90;;;;;;5095521;28;20984;-66
2022/07/17 08:23:28;;;;;;;2.17;1.33;;;19.40;99.90;;;;;;5095440;28;20446;-66
2022/07/17 08:25:54;;;;;;;7.10;1.80;;;19.30;99.90;;;;;;5095226;28;20446;-66
2022/07/17 08:28:21;;;;;;;3.53;1.30;;;19.20;99.90;;;;;;5095626;28;20809;-65
2022/07/17 08:30:48;;;;;;;2.20;1.17;;;19.10;99.90;;;;;;5095516;28;20450;-66
2022/07/17 08:33:16;;;;;;;5.90;2.10;;;19.10;99.90;;;;;;5095364;28;20517;-65
2022/07/17 08:35:42;;;;;;;3.30;1.23;;;19.00;99.90;;;;;;5095231;28;20455;-66
2022/07/17 08:38:09;;;;;;;3.00;2.10;;;18.90;99.90;;;;;;5095210;28;20446;-66
2022/07/17 08:40:38;;;;;;;7.30;2.40;;;18.90;99.90;;;;;;5095244;28;20524;-66
2022/07/17 08:43:06;;;;;;;4.83;2.07;;;18.90;99.90;;;;;;5095315;28;20460;-65
2022/07/17 08:45:33;;;;;;;6.87;1.70;;;18.90;99.90;;;;;;5095250;28;20453;-65
2022/07/17 08:48:01;;;;;;;2.63;1.50;;;18.90;99.90;;;;;;5094738;28;20541;-66
2022/07/17 08:50:30;;;;;;;2.80;1.37;;;19.00;99.90;;;;;;5094915;28;20446;-66
2022/07/17 08:52:56;;;;;;;3.50;1.43;;;19.10;99.90;;;;;;5095160;28;20461;-66
2022/07/17 08:55:23;;;;;;;2.00;1.03;;;19.30;99.90;;;;;;5094869;28;20450;-66
2022/07/17 08:57:50;;;;;;;2.83;1.73;;;19.50;99.90;;;;;;5094842;28;20884;-65
2022/07/17 09:00:19;;;;;;;3.20;1.40;;;19.60;99.90;;;;;;5094579;28;20446;-66
2022/07/17 09:02:57;;;;;;;7.53;1.70;;;19.90;99.90;;;;;;5094710;28;20541;-66
2022/07/17 09:05:27;;;;;;;5.13;1.33;;;19.90;99.90;;;;;;5093741;28;20530;-66
2022/07/17 09:07:53;;;;;;;3.63;1.20;;;20.10;99.90;;;;;;5095082;28;20458;-66
2022/07/17 09:10:31;;;;;;;5.23;1.50;;;20.20;99.90;;;;;;5094551;28;20964;-66
2022/07/17 09:12:57;;;;;;;3.03;1.23;;;20.20;99.90;;;;;;5094705;28;20453;-66
2022/07/17 09:15:24;;;;;;;5.83;1.80;;;20.30;99.90;;;;;;5094529;28;20447;-66
2022/07/17 09:17:51;;;;;;;2.23;1.17;;;20.40;99.90;;;;;;5094533;28;20882;-66
2022/07/17 09:20:19;;;;;;;4.23;1.30;;;20.40;99.90;;;;;;5094423;28;20537;-66
2022/07/17 09:22:56;;;;;;;3.83;1.30;;;20.20;99.90;;;;;;5094453;28;20949;-65
2022/07/17 09:25:33;;;;;;;2.67;1.20;;;20.20;99.90;;;;;;5094585;28;20446;-66
2022/07/17 09:28:02;;;;;;;4.47;1.37;;;20.20;99.90;;;;;;5094291;28;20836;-65
2022/07/17 09:30:29;;;;;;;5.47;1.20;;;20.30;99.90;;;;;;5094383;28;20446;-65
2022/07/17 09:32:56;;;;;;;2.90;1.13;;;20.60;99.90;;;;;;5094436;28;20453;-66
2022/07/17 09:35:23;;;;;;;2.87;1.67;;;20.80;99.90;;;;;;5094338;28;20542;-66
2022/07/17 09:37:54;;;;;;;3.50;1.30;;;21.00;99.90;;;;;;5094368;28;20457;-66
2022/07/17 09:43:02;;;;;;;3.10;1.37;;;21.20;99.90;;;;;;5093806;28;20447;-65
2022/07/17 09:45:28;;;;;;;9.87;1.50;;;21.40;99.90;;;;;;5094225;28;20447;-66
2022/07/17 09:47:57;;;;;;;4.13;1.30;;;21.60;99.90;;;;;;5094081;28;20449;-66
2022/07/17 09:50:25;;;;;;;2.07;0.90;;;21.80;99.90;;;;;;5093880;28;20832;-66
2022/07/17 09:52:55;;;;;;;2.93;1.40;;;21.80;99.90;;;;;;5093811;28;20459;-66
2022/07/17 09:55:23;;;;;;;1.63;1.10;;;21.90;99.70;;;;;;5093782;28;20456;-65
2022/07/17 09:57:52;;;;;;;2.87;1.37;;;21.60;99.60;;;;;;5093632;28;20474;-65
2022/07/17 10:00:18;;;;;;;2.80;1.77;;;21.60;99.90;;;;;;5093782;28;20455;-65
2022/07/17 10:02:45;;;;;;;4.03;1.47;;;21.80;99.60;;;;;;5093582;28;20483;-66
2022/07/17 10:05:15;;;;;;;3.50;1.60;;;21.60;99.80;;;;;;5093529;28;21012;-65
2022/07/17 10:07:41;;;;;;;4.17;1.60;;;21.50;99.90;;;;;;5093596;28;20450;-65
2022/07/17 10:10:10;;;;;;;4.70;1.47;;;21.40;99.90;;;;;;5093652;28;20492;-65
2022/07/17 10:12:39;;;;;;;3.40;1.87;;;21.50;99.90;;;;;;5093557;28;20451;-65
2022/07/17 10:15:08;;;;;;;4.50;1.60;;;21.60;99.90;;;;;;5093013;28;20825;-65
2022/07/17 10:17:34;;;;;;;1.83;1.27;;;21.80;99.90;;;;;;5093455;28;20449;-65
2022/07/17 10:20:03;;;;;;;3.30;1.73;;;21.90;99.90;;;;;;5093350;28;20447;-65
2022/07/17 10:22:42;;;;;;;3.97;1.80;;;22.00;99.50;;;;;;5093167;28;20568;-65
2022/07/17 10:25:15;;;;;;;3.30;1.40;;;21.70;98.70;;;;;;5093524;28;20476;-65
2022/07/17 10:27:47;;;;;;;2.80;1.47;;;21.40;99.70;;;;;;5093365;28;20454;-66
2022/07/17 10:30:14;;;;;;;3.37;1.10;;;21.50;99.60;;;;;;5093202;28;20452;-65
2022/07/17 10:32:52;;;;;;;5.60;2.10;;;21.60;99.40;;;;;;5093000;28;20446;-65
2022/07/17 10:35:18;;;;;;;3.70;2.00;;;21.70;99.50;;;;;;5093137;28;20537;-65
2022/07/17 10:37:45;;;;;;;3.40;1.10;;;21.70;99.60;;;;;;5093084;28;20443;-66
2022/07/17 10:40:17;;;;;;;3.93;1.57;;;21.80;99.70;;;;;;5093164;28;20805;-65
2022/07/17 10:42:52;;;;;;;2.80;1.43;;;21.70;99.90;;;;;;5092961;28;20481;-65
2022/07/17 10:45:20;;;;;;;2.43;1.17;;;21.80;98.90;;;;;;5092996;28;20952;-65
2022/07/17 10:47:49;;;;;;;1.73;1.30;;;21.80;98.20;;;;;;5093089;28;20549;-65
2022/07/17 10:50:18;;;;;;;3.80;1.43;;;21.90;98.20;;;;;;5093113;28;20486;-65
2022/07/17 10:52:44;;;;;;;4.70;1.90;;;22.00;98.00;;;;;;5093024;28;20537;-65
2022/07/17 10:55:22;;;;;;;3.60;1.30;;;22.10;98.20;;;;;;5093004;28;20840;-65
2022/07/17 10:57:49;;;;;;;4.10;1.83;;;22.00;98.50;;;;;;5092734;28;20476;-65
2022/07/17 11:00:16;;;;;;;6.00;1.67;;;22.10;99.40;;;;;;5093025;28;20519;-65
2022/07/17 11:02:43;;;;;;;2.20;1.30;;;22.40;99.10;;;;;;5092913;28;20485;-65
2022/07/17 11:05:10;;;;;;;4.10;1.83;;;22.80;97.60;;;;;;5092983;28;20450;-65
2022/07/17 11:07:37;;;;;;;3.60;1.33;;;23.10;96.90;;;;;;5092877;28;20442;-65
2022/07/17 11:10:04;;;;;;;6.60;1.60;;;23.30;97.20;;;;;;5092763;28;20439;-66
2022/07/17 11:12:33;;;;;;;1.87;1.20;;;23.50;96.20;;;;;;5092866;28;20460;-66
2022/07/17 11:15:00;;;;;;;7.00;1.63;;;23.40;94.90;;;;;;5092909;28;20554;-65
2022/07/17 11:17:27;;;;;;;4.00;1.97;;;23.10;94.70;;;;;;5092652;28;20949;-65
2022/07/17 11:19:53;;;;;;;2.30;1.27;;;23.10;95.60;;;;;;5092785;28;20439;-65
2022/07/17 11:22:24;;;;;;;4.80;1.47;;;23.10;95.70;;;;;;5092604;28;21007;-65
2022/07/17 11:24:51;;;;;;;3.60;1.30;;;23.20;95.20;;;;;;5092526;28;20454;-65
2022/07/17 11:27:21;;;;;;;2.70;1.60;;;23.20;95.90;;;;;;5093815;28;20457;-65
2022/07/17 11:29:50;;;;;;;1.67;1.20;;;23.40;94.90;;;;;;5096698;28;20450;-65
2022/07/17 11:32:16;;;;;;;2.93;1.67;;;23.40;94.90;;;;;;5096640;28;20615;-65
2022/07/17 11:34:43;;;;;;;4.90;1.70;;;23.50;94.30;;;;;;5096346;28;20457;-65
2022/07/17 11:37:10;;;;;;;4.20;1.60;;;23.50;93.70;;;;;;5096367;28;20537;-65
2022/07/17 11:39:40;;;;;;;3.10;1.40;;;23.50;94.10;;;;;;5096609;28;20442;-65
2022/07/17 11:42:08;;;;;;;4.37;1.27;;;23.50;93.80;;;;;;5096356;28;20481;-65
2022/07/17 11:44:35;;;;;;;4.03;1.83;;;23.60;93.80;;;;;;5096203;28;20959;-65
2022/07/17 11:47:03;;;;;;;9.90;1.73;;;23.60;93.90;;;;;;5096233;28;20454;-65
2022/07/17 11:49:32;;;;;;;3.40;1.50;;;23.70;93.60;;;;;;5096203;28;20876;-65
2022/07/17 11:52:07;;;;;;;2.43;1.23;;;24.00;93.20;;;;;;5096064;28;20533;-66
2022/07/17 11:54:44;;;;;;;2.50;1.40;;;24.20;94.00;;;;;;5096363;28;20900;-65
2022/07/17 11:57:11;;;;;;;3.07;1.90;;;24.30;93.10;;;;;;5096052;28;20528;-65
2022/07/17 11:59:37;;;;;;;2.57;1.60;;;24.30;92.70;;;;;;5096179;28;20561;-65
2022/07/17 12:02:10;;;;;;;2.10;1.20;;;24.40;91.80;;;;;;5095886;28;20476;-65
2022/07/17 12:04:36;;;;;;;4.73;1.63;;;24.00;91.70;;;;;;5096129;28;20538;-65
2022/07/17 12:07:04;;;;;;;1.77;1.20;;;23.90;92.40;;;;;;5096027;28;20807;-65
2022/07/17 12:09:33;;;;;;;1.60;1.30;;;24.20;92.70;;;;;;5095699;28;20453;-65
2022/07/17 12:12:01;;;;;;;1.93;1.43;;;24.10;91.40;;;;;;5095683;28;20451;-65
2022/07/17 12:14:27;;;;;;;2.40;1.20;;;24.20;91.10;;;;;;5095627;28;20971;-65
2022/07/17 12:16:57;;;;;;;5.63;1.40;;;24.30;91.30;;;;;;5095500;28;20453;-65
2022/07/17 12:19:25;;;;;;;3.43;1.30;;;24.30;91.10;;;;;;5095790;28;20455;-65
2022/07/17 12:21:54;;;;;;;4.53;1.50;;;24.40;91.50;;;;;;5095612;28;20478;-65
2022/07/17 12:24:25;;;;;;;2.13;1.43;;;24.50;91.50;;;;;;5095605;28;20457;-65
2022/07/17 12:26:52;;;;;;;2.40;1.30;;;24.20;91.70;;;;;;5095478;28;20529;-65
2022/07/17 12:29:19;;;;;;;2.53;1.50;;;24.10;91.30;;;;;;5095329;28;20451;-65
2022/07/17 12:31:45;;;;;;;5.10;1.30;;;23.90;91.00;;;;;;5095236;28;20458;-65
2022/07/17 12:34:12;;;;;;;2.80;1.60;;;23.90;91.40;;;;;;5095527;28;20446;-65
2022/07/17 12:36:40;;;;;;;5.57;2.00;;;24.10;91.50;;;;;;5095356;28;20457;-65
2022/07/17 12:39:06;;;;;;;4.10;1.50;;;24.20;91.00;;;;;;5094983;28;21041;-65
2022/07/17 12:41:33;;;;;;;5.20;1.50;;;24.50;91.90;;;;;;5095075;28;20542;-65
2022/07/17 12:43:59;;;;;;;4.40;1.77;;;24.40;91.50;;;;;;5095028;28;20451;-65
2022/07/17 12:46:26;;;;;;;4.20;1.80;;;24.40;91.70;;;;;;5095308;28;20454;-65
2022/07/17 12:48:52;;;;;;;3.23;1.77;;;23.70;91.20;;;;;;5095244;28;20450;-65
2022/07/17 12:51:19;;;;;;;3.13;1.77;;;23.50;91.60;;;;;;5094998;28;20490;-65
2022/07/17 12:53:46;;;;;;;3.30;1.60;;;23.50;92.90;;;;;;5095018;28;20914;-65